createdAt,value
2018-11-02T00:00:59.566Z,0.00
2018-11-02T00:01:59.595Z,0.00
2018-11-02T00:02:59.545Z,0.00
2018-11-02T00:03:59.533Z,0.00
2018-11-02T00:04:59.524Z,0.00
2018-11-02T00:05:59.515Z,0.00
2018-11-02T00:06:59.503Z,0.00
2018-11-02T00:07:59.501Z,0.00
2018-11-02T00:08:59.481Z,0.00
2018-11-02T00:09:59.471Z,0.00
2018-11-02T00:10:59.458Z,0.00
2018-11-02T00:11:59.463Z,0.00
2018-11-02T00:12:59.436Z,0.00
2018-11-02T00:13:59.455Z,0.00
2018-11-02T00:14:59.416Z,0.00
2018-11-02T00:15:59.407Z,0.00
2018-11-02T00:16:59.395Z,0.00
2018-11-02T00:17:59.384Z,0.00
2018-11-02T00:18:59.374Z,0.00
2018-11-02T00:19:59.375Z,0.00
2018-11-02T00:20:59.353Z,0.00
2018-11-02T00:21:59.341Z,0.00
2018-11-02T00:22:59.332Z,0.00
2018-11-02T00:23:59.319Z,0.00
2018-11-02T00:24:59.335Z,0.00
2018-11-02T00:25:59.299Z,0.00
2018-11-02T00:26:59.289Z,0.00
2018-11-02T00:27:59.284Z,0.00
2018-11-02T00:28:59.269Z,0.00
2018-11-02T00:29:59.259Z,0.00
2018-11-02T00:30:59.265Z,0.00
2018-11-02T00:31:59.288Z,0.00
2018-11-02T00:32:59.225Z,0.00
2018-11-02T00:33:59.227Z,0.00
2018-11-02T00:34:59.235Z,0.00
2018-11-02T00:35:59.193Z,0.00
2018-11-02T00:36:59.195Z,0.00
2018-11-02T00:37:59.169Z,0.00
2018-11-02T00:38:59.160Z,0.00
2018-11-02T00:39:59.148Z,0.00
2018-11-02T00:40:59.166Z,0.00
2018-11-02T00:41:59.128Z,0.00
2018-11-02T00:42:59.116Z,0.00
2018-11-02T00:43:59.173Z,0.00
2018-11-02T00:44:59.095Z,0.00
2018-11-02T00:45:59.083Z,0.00
2018-11-02T00:46:59.083Z,0.00
2018-11-02T00:47:59.061Z,0.00
2018-11-02T00:48:59.050Z,0.00
2018-11-02T00:49:59.052Z,0.00
2018-11-02T00:50:59.028Z,0.00
2018-11-02T00:51:59.016Z,0.00
2018-11-02T00:52:59.007Z,0.00
2018-11-02T00:53:59.079Z,0.00
2018-11-02T00:54:58.984Z,0.00
2018-11-02T00:55:58.974Z,0.00
2018-11-02T00:56:58.963Z,0.00
2018-11-02T00:57:58.952Z,0.00
2018-11-02T00:58:58.943Z,0.00
2018-11-02T00:59:58.963Z,0.00
2018-11-02T01:00:58.919Z,0.00
2018-11-02T01:01:58.909Z,0.00
2018-11-02T01:02:58.899Z,0.00
2018-11-02T01:03:58.887Z,0.00
2018-11-02T01:04:58.890Z,0.00
2018-11-02T01:05:58.887Z,0.00
2018-11-02T01:06:58.855Z,0.00
2018-11-02T01:07:58.844Z,0.00
2018-11-02T01:08:58.832Z,0.00
2018-11-02T01:09:58.822Z,0.00
2018-11-02T01:10:58.836Z,0.00
2018-11-02T01:11:58.801Z,0.00
2018-11-02T01:12:58.789Z,0.00
2018-11-02T01:13:58.778Z,0.00
2018-11-02T01:14:58.767Z,0.00
2018-11-02T01:15:58.756Z,0.00
2018-11-02T01:16:58.759Z,0.00
2018-11-02T01:17:58.733Z,0.00
2018-11-02T01:18:58.726Z,0.00
2018-11-02T01:19:58.712Z,0.00
2018-11-02T01:20:58.774Z,0.00
2018-11-02T01:21:58.731Z,0.00
2018-11-02T01:22:58.679Z,0.00
2018-11-02T01:23:58.668Z,0.00
2018-11-02T01:24:58.659Z,0.00
2018-11-02T01:25:58.675Z,0.00
2018-11-02T01:26:58.635Z,0.00
2018-11-02T01:27:58.634Z,0.00
2018-11-02T01:28:58.615Z,0.00
2018-11-02T01:29:58.602Z,0.00
2018-11-02T01:30:58.592Z,0.00
2018-11-02T01:31:58.581Z,0.00
2018-11-02T01:32:58.584Z,0.00
2018-11-02T01:33:58.557Z,0.00
2018-11-02T01:34:58.547Z,0.00
2018-11-02T01:35:58.536Z,0.00
2018-11-02T01:36:58.542Z,0.00
2018-11-02T01:37:58.527Z,0.00
2018-11-02T01:38:58.513Z,0.00
2018-11-02T01:39:58.492Z,0.00
2018-11-02T01:40:58.481Z,0.00
2018-11-02T01:41:58.471Z,0.00
2018-11-02T01:42:58.492Z,0.00
2018-11-02T01:43:58.448Z,0.00
2018-11-02T01:44:58.439Z,0.00
2018-11-02T01:45:58.426Z,0.00
2018-11-02T01:46:58.417Z,0.00
2018-11-02T01:47:58.403Z,0.00
2018-11-02T01:48:58.407Z,0.00
2018-11-02T01:49:58.382Z,0.00
2018-11-02T01:50:58.371Z,0.00
2018-11-02T01:51:58.374Z,0.00
2018-11-02T01:52:58.359Z,0.00
2018-11-02T01:53:58.352Z,0.00
2018-11-02T01:54:58.327Z,0.00
2018-11-02T01:55:58.317Z,0.00
2018-11-02T01:56:58.306Z,0.00
2018-11-02T01:57:58.294Z,0.00
2018-11-02T01:58:58.298Z,0.00
2018-11-02T01:59:58.287Z,0.00
2018-11-02T02:00:58.262Z,0.00
2018-11-02T02:01:58.251Z,0.00
2018-11-02T02:02:58.245Z,0.00
2018-11-02T02:03:58.244Z,0.00
2018-11-02T02:04:58.221Z,0.00
2018-11-02T02:05:58.207Z,0.00
2018-11-02T02:06:58.199Z,0.00
2018-11-02T02:07:58.186Z,0.00
2018-11-02T02:08:58.205Z,0.00
2018-11-02T02:09:58.169Z,0.00
2018-11-02T02:10:58.154Z,0.00
2018-11-02T02:11:58.145Z,0.00
2018-11-02T02:12:58.139Z,0.00
2018-11-02T02:13:58.123Z,0.00
2018-11-02T02:14:58.124Z,0.00
2018-11-02T02:15:58.098Z,0.00
2018-11-02T02:16:58.089Z,0.00
2018-11-02T02:17:58.077Z,0.00
2018-11-02T02:18:58.066Z,0.00
2018-11-02T02:19:58.106Z,0.00
2018-11-02T02:20:58.050Z,0.00
2018-11-02T02:21:58.034Z,0.00
2018-11-02T02:22:58.050Z,0.00
2018-11-02T02:23:58.013Z,0.00
2018-11-02T02:24:58.002Z,0.00
2018-11-02T02:25:58.044Z,0.00
2018-11-02T02:26:57.980Z,0.00
2018-11-02T02:27:57.971Z,0.00
2018-11-02T02:28:57.959Z,0.00
2018-11-02T02:29:57.948Z,0.00
2018-11-02T02:30:57.950Z,0.00
2018-11-02T02:31:57.926Z,0.00
2018-11-02T02:32:57.947Z,0.00
2018-11-02T02:33:57.911Z,0.00
2018-11-02T02:34:57.892Z,0.00
2018-11-02T02:35:57.882Z,0.00
2018-11-02T02:36:57.871Z,0.00
2018-11-02T02:37:57.862Z,0.00
2018-11-02T02:38:57.865Z,0.00
2018-11-02T02:39:57.839Z,0.00
2018-11-02T02:40:57.828Z,0.00
2018-11-02T02:41:57.819Z,0.00
2018-11-02T02:42:57.805Z,0.00
2018-11-02T02:43:57.810Z,0.00
2018-11-02T02:44:57.782Z,0.00
2018-11-02T02:45:57.773Z,0.00
2018-11-02T02:46:57.776Z,0.00
2018-11-02T02:47:57.764Z,0.00
2018-11-02T02:48:57.741Z,0.00
2018-11-02T02:49:57.729Z,0.00
2018-11-02T02:50:57.721Z,0.00
2018-11-02T02:51:57.709Z,0.00
2018-11-02T02:52:57.728Z,0.00
2018-11-02T02:53:57.686Z,0.00
2018-11-02T02:54:57.676Z,0.00
2018-11-02T02:55:57.662Z,0.00
2018-11-02T02:56:57.667Z,0.00
2018-11-02T02:57:57.641Z,0.00
2018-11-02T02:58:57.646Z,0.00
2018-11-02T02:59:57.620Z,0.00
2018-11-02T03:00:57.611Z,0.00
2018-11-02T03:01:57.599Z,0.00
2018-11-02T03:02:57.602Z,0.00
2018-11-02T03:03:57.577Z,0.00
2018-11-02T03:04:57.613Z,0.00
2018-11-02T03:05:57.558Z,0.00
2018-11-02T03:06:57.544Z,0.00
2018-11-02T03:07:57.534Z,0.00
2018-11-02T03:08:57.522Z,0.00
2018-11-02T03:09:57.512Z,0.00
2018-11-02T03:10:57.707Z,0.00
2018-11-02T03:11:57.492Z,0.00
2018-11-02T03:12:57.480Z,0.00
2018-11-02T03:13:57.470Z,0.00
2018-11-02T03:14:57.459Z,0.00
2018-11-02T03:15:57.446Z,0.00
2018-11-02T03:16:57.450Z,0.00
2018-11-02T03:17:57.424Z,0.00
2018-11-02T03:18:57.417Z,0.00
2018-11-02T03:19:57.403Z,0.00
2018-11-02T03:20:57.394Z,0.00
2018-11-02T03:21:57.467Z,0.00
2018-11-02T03:22:57.369Z,0.00
2018-11-02T03:23:57.362Z,0.00
2018-11-02T03:24:57.349Z,0.00
2018-11-02T03:25:57.337Z,0.00
2018-11-02T03:26:57.327Z,0.00
2018-11-02T03:27:57.345Z,0.00
2018-11-02T03:28:57.304Z,0.00
2018-11-02T03:29:57.313Z,0.00
2018-11-02T03:30:57.284Z,0.00
2018-11-02T03:31:57.272Z,0.00
2018-11-02T03:32:57.275Z,0.00
2018-11-02T03:33:57.256Z,0.00
2018-11-02T03:34:57.241Z,0.00
2018-11-02T03:35:57.228Z,0.00
2018-11-02T03:36:57.222Z,0.00
2018-11-02T03:37:57.221Z,0.00
2018-11-02T03:38:57.198Z,0.00
2018-11-02T03:39:57.183Z,0.00
2018-11-02T03:40:57.203Z,0.00
2018-11-02T03:41:57.162Z,0.00
2018-11-02T03:42:57.150Z,0.00
2018-11-02T03:43:57.139Z,0.00
2018-11-02T03:44:57.133Z,0.00
2018-11-02T03:45:57.118Z,0.00
2018-11-02T03:46:57.121Z,0.00
2018-11-02T03:47:57.110Z,0.00
2018-11-02T03:48:57.084Z,0.00
2018-11-02T03:49:57.074Z,0.00
2018-11-02T03:50:57.091Z,0.00
2018-11-02T03:51:57.052Z,0.00
2018-11-02T03:52:57.082Z,0.00
2018-11-02T03:53:57.033Z,0.00
2018-11-02T03:54:57.028Z,0.00
2018-11-02T03:55:57.008Z,0.00
2018-11-02T03:56:57.140Z,0.00
2018-11-02T03:57:57.045Z,0.00
2018-11-02T03:58:56.991Z,0.00
2018-11-02T03:59:56.979Z,0.00
2018-11-02T04:00:56.954Z,0.00
2018-11-02T04:01:56.942Z,0.00
2018-11-02T04:02:56.931Z,0.00
2018-11-02T04:03:56.959Z,0.00
2018-11-02T04:04:56.910Z,0.00
2018-11-02T04:05:56.898Z,0.00
2018-11-02T04:06:56.887Z,0.00
2018-11-02T04:07:56.877Z,0.00
2018-11-02T04:08:56.868Z,0.00
2018-11-02T04:09:56.867Z,0.00
2018-11-02T04:10:56.842Z,0.00
2018-11-02T04:11:56.834Z,0.00
2018-11-02T04:12:56.821Z,0.00
2018-11-02T04:13:56.811Z,0.00
2018-11-02T04:14:56.812Z,0.00
2018-11-02T04:15:56.789Z,0.00
2018-11-02T04:16:56.792Z,0.00
2018-11-02T04:17:56.768Z,0.00
2018-11-02T04:18:56.758Z,0.00
2018-11-02T04:19:56.760Z,0.00
2018-11-02T04:20:56.733Z,0.00
2018-11-02T04:21:56.722Z,0.00
2018-11-02T04:22:56.711Z,0.00
2018-11-02T04:23:56.701Z,0.00
2018-11-02T04:24:56.703Z,0.00
2018-11-02T04:25:56.679Z,0.00
2018-11-02T04:26:56.667Z,0.00
2018-11-02T04:27:56.657Z,0.00
2018-11-02T04:28:56.646Z,0.00
2018-11-02T04:29:56.648Z,0.00
2018-11-02T04:30:56.686Z,0.00
2018-11-02T04:31:56.614Z,0.00
2018-11-02T04:32:56.614Z,0.00
2018-11-02T04:33:56.608Z,0.00
2018-11-02T04:34:56.646Z,0.00
2018-11-02T04:35:56.569Z,0.00
2018-11-02T04:36:56.560Z,0.00
2018-11-02T04:37:56.551Z,0.00
2018-11-02T04:38:56.536Z,0.00
2018-11-02T04:39:56.539Z,0.00
2018-11-02T04:40:56.514Z,0.00
2018-11-02T04:41:56.505Z,0.00
2018-11-02T04:42:56.511Z,0.00
2018-11-02T04:43:56.484Z,0.00
2018-11-02T04:44:56.483Z,0.00
2018-11-02T04:45:56.459Z,0.00
2018-11-02T04:46:56.447Z,0.00
2018-11-02T04:47:56.437Z,0.00
2018-11-02T04:48:56.440Z,0.00
2018-11-02T04:49:56.414Z,0.00
2018-11-02T04:50:56.478Z,0.00
2018-11-02T04:51:56.393Z,0.00
2018-11-02T04:52:56.397Z,0.00
2018-11-02T04:53:56.384Z,0.00
2018-11-02T04:54:56.364Z,0.00
2018-11-02T04:55:56.350Z,0.00
2018-11-02T04:56:56.352Z,0.00
2018-11-02T04:57:56.328Z,0.00
2018-11-02T04:58:56.318Z,0.00
2018-11-02T04:59:56.328Z,0.00
2018-11-02T05:00:56.293Z,0.00
2018-11-02T05:01:56.298Z,0.00
2018-11-02T05:02:56.272Z,0.00
2018-11-02T05:03:56.262Z,0.00
2018-11-02T05:04:56.250Z,0.00
2018-11-02T05:05:56.239Z,0.00
2018-11-02T05:06:56.254Z,0.00
2018-11-02T05:07:56.220Z,0.00
2018-11-02T05:08:56.219Z,0.00
2018-11-02T05:09:56.336Z,0.00
2018-11-02T05:10:56.184Z,0.00
2018-11-02T05:11:56.174Z,0.00
2018-11-02T05:12:56.177Z,0.00
2018-11-02T05:13:56.173Z,0.00
2018-11-02T05:14:56.166Z,0.00
2018-11-02T05:15:56.129Z,0.00
2018-11-02T05:16:56.118Z,0.00
2018-11-02T05:17:56.122Z,0.00
2018-11-02T05:18:56.096Z,0.00
2018-11-02T05:19:56.087Z,0.00
2018-11-02T05:20:56.076Z,0.00
2018-11-02T05:21:56.062Z,0.00
2018-11-02T05:22:56.108Z,0.00
2018-11-02T05:23:56.042Z,0.00
2018-11-02T05:24:56.029Z,0.00
2018-11-02T05:25:56.019Z,0.00
2018-11-02T05:26:56.007Z,0.00
2018-11-02T05:27:56.013Z,0.00
2018-11-02T05:28:55.985Z,0.00
2018-11-02T05:29:55.987Z,0.00
2018-11-02T05:30:55.966Z,0.00
2018-11-02T05:31:55.955Z,0.00
2018-11-02T05:32:55.941Z,0.00
2018-11-02T05:33:55.961Z,0.00
2018-11-02T05:34:55.919Z,0.00
2018-11-02T05:35:55.915Z,0.00
2018-11-02T05:36:55.897Z,0.00
2018-11-02T05:37:55.885Z,0.00
2018-11-02T05:38:55.875Z,0.00
2018-11-02T05:39:55.878Z,0.00
2018-11-02T05:40:55.860Z,0.00
2018-11-02T05:41:55.843Z,0.00
2018-11-02T05:42:55.833Z,0.00
2018-11-02T05:43:55.844Z,0.00
2018-11-02T05:44:55.821Z,0.00
2018-11-02T05:45:55.802Z,0.00
2018-11-02T05:46:55.788Z,0.00
2018-11-02T05:47:55.776Z,0.00
2018-11-02T05:48:55.790Z,0.00
2018-11-02T05:49:55.803Z,0.00
2018-11-02T05:50:55.744Z,0.00
2018-11-02T05:51:55.735Z,0.00
2018-11-02T05:52:55.721Z,0.00
2018-11-02T05:53:55.716Z,0.00
2018-11-02T05:54:55.711Z,0.00
2018-11-02T05:55:55.702Z,0.00
2018-11-02T05:56:55.679Z,0.00
2018-11-02T05:57:55.678Z,0.00
2018-11-02T05:58:55.657Z,0.00
2018-11-02T05:59:55.646Z,0.00
2018-11-02T06:00:55.662Z,0.00
2018-11-02T06:01:55.624Z,0.00
2018-11-02T06:02:55.612Z,0.00
2018-11-02T06:03:55.601Z,0.00
2018-11-02T06:04:55.613Z,0.00
2018-11-02T06:05:55.582Z,0.00
2018-11-02T06:06:55.581Z,0.00
2018-11-02T06:07:55.585Z,0.00
2018-11-02T06:08:55.548Z,0.00
2018-11-02T06:09:55.536Z,0.00
2018-11-02T06:10:55.535Z,0.00
2018-11-02T06:11:55.552Z,0.00
2018-11-02T06:12:55.505Z,0.00
2018-11-02T06:13:55.492Z,0.00
2018-11-02T06:14:55.482Z,0.00
2018-11-02T06:15:55.470Z,0.00
2018-11-02T06:16:55.502Z,0.00
2018-11-02T06:17:55.458Z,0.00
2018-11-02T06:18:55.437Z,0.00
2018-11-02T06:19:55.425Z,0.00
2018-11-02T06:20:55.417Z,0.00
2018-11-02T06:21:55.414Z,0.00
2018-11-02T06:22:55.393Z,0.00
2018-11-02T06:23:55.384Z,0.00
2018-11-02T06:24:55.370Z,0.00
2018-11-02T06:25:55.360Z,0.00
2018-11-02T06:26:55.374Z,0.00
2018-11-02T06:27:55.339Z,0.00
2018-11-02T06:32:28.450Z,5.62
2018-11-02T06:33:28.395Z,5.62
2018-11-02T06:34:28.384Z,0.00
2018-11-02T06:35:28.371Z,0.00
2018-11-02T06:36:28.382Z,0.00
2018-11-02T06:37:28.361Z,5.62
2018-11-02T06:38:28.368Z,5.62
2018-11-02T06:39:28.329Z,5.62
2018-11-02T06:40:28.334Z,5.62
2018-11-02T06:41:28.306Z,5.62
2018-11-02T06:42:28.296Z,11.25
2018-11-02T06:43:28.315Z,11.25
2018-11-02T06:44:28.277Z,11.25
2018-11-02T06:45:28.272Z,11.25
2018-11-02T06:46:28.252Z,16.88
2018-11-02T06:47:28.241Z,16.88
2018-11-02T06:48:28.231Z,16.88
2018-11-02T06:49:28.245Z,22.50
2018-11-02T06:50:28.210Z,22.50
2018-11-02T06:51:28.198Z,16.88
2018-11-02T06:52:28.187Z,16.88
2018-11-02T06:53:28.175Z,16.88
2018-11-02T06:54:28.171Z,22.50
2018-11-02T06:55:28.188Z,22.50
2018-11-02T06:56:28.142Z,22.50
2018-11-02T06:57:28.132Z,16.88
2018-11-02T06:58:28.174Z,16.88
2018-11-02T06:59:28.231Z,16.88
2018-11-02T07:00:28.222Z,16.88
2018-11-02T07:01:28.089Z,22.50
2018-11-02T07:02:28.078Z,22.50
2018-11-02T07:03:28.068Z,28.12
2018-11-02T07:04:28.070Z,33.75
2018-11-02T07:05:28.044Z,39.38
2018-11-02T07:06:28.057Z,45.00
2018-11-02T07:07:28.244Z,50.62
2018-11-02T07:08:28.179Z,45.00
2018-11-02T07:09:28.040Z,33.75
2018-11-02T07:10:27.988Z,28.12
2018-11-02T07:11:27.981Z,28.12
2018-11-02T07:12:27.966Z,33.75
2018-11-02T07:13:27.956Z,39.38
2018-11-02T07:14:27.948Z,33.75
2018-11-02T07:15:27.949Z,45.00
2018-11-02T07:16:27.923Z,50.62
2018-11-02T07:17:27.928Z,56.25
2018-11-02T07:18:27.904Z,61.88
2018-11-02T07:19:27.891Z,67.50
2018-11-02T07:20:27.906Z,73.12
2018-11-02T07:21:27.868Z,61.88
2018-11-02T07:22:27.860Z,61.88
2018-11-02T07:23:27.847Z,61.88
2018-11-02T07:24:27.837Z,84.38
2018-11-02T07:25:27.829Z,95.62
2018-11-02T07:26:27.848Z,101.25
2018-11-02T07:27:27.829Z,123.75
2018-11-02T07:28:27.792Z,118.12
2018-11-02T07:29:27.782Z,106.88
2018-11-02T07:30:27.770Z,112.50
2018-11-02T07:31:27.762Z,106.88
2018-11-02T07:32:27.785Z,84.38
2018-11-02T07:33:27.738Z,90.00
2018-11-02T07:34:27.807Z,106.88
2018-11-02T07:35:27.715Z,101.25
2018-11-02T07:36:27.721Z,101.25
2018-11-02T07:37:27.705Z,90.00
2018-11-02T07:38:27.682Z,95.62
2018-11-02T07:39:27.670Z,90.00
2018-11-02T07:40:27.660Z,90.00
2018-11-02T07:41:27.649Z,101.25
2018-11-02T07:42:27.652Z,118.12
2018-11-02T07:43:27.628Z,118.12
2018-11-02T07:44:27.632Z,123.75
2018-11-02T07:45:27.606Z,140.62
2018-11-02T07:46:27.594Z,163.12
2018-11-02T07:47:27.628Z,157.50
2018-11-02T07:48:27.600Z,185.62
2018-11-02T07:49:27.615Z,196.88
2018-11-02T07:50:27.551Z,180.00
2018-11-02T07:51:27.542Z,151.88
2018-11-02T07:52:27.532Z,140.62
2018-11-02T07:53:27.534Z,112.50
2018-11-02T07:54:27.508Z,101.25
2018-11-02T07:55:27.495Z,90.00
2018-11-02T07:56:27.485Z,84.38
2018-11-02T07:57:27.475Z,129.38
2018-11-02T07:58:27.477Z,135.00
2018-11-02T07:59:27.466Z,90.00
2018-11-02T08:00:27.439Z,84.38
2018-11-02T08:01:27.430Z,73.12
2018-11-02T08:02:27.433Z,67.50
2018-11-02T08:03:27.408Z,50.62
2018-11-02T08:04:27.401Z,45.00
2018-11-02T08:05:27.400Z,45.00
2018-11-02T08:06:27.388Z,45.00
2018-11-02T08:07:27.364Z,45.00
2018-11-02T08:08:27.385Z,45.00
2018-11-02T08:09:27.341Z,50.62
2018-11-02T08:10:27.331Z,56.25
2018-11-02T08:11:27.356Z,50.62
2018-11-02T08:12:27.308Z,50.62
2018-11-02T08:13:27.301Z,45.00
2018-11-02T08:14:27.298Z,50.62
2018-11-02T08:15:27.308Z,56.25
2018-11-02T08:16:27.265Z,67.50
2018-11-02T08:17:27.264Z,73.12
2018-11-02T08:18:27.243Z,73.12
2018-11-02T08:19:27.233Z,73.12
2018-11-02T08:20:27.220Z,67.50
2018-11-02T08:21:27.240Z,67.50
2018-11-02T08:22:27.199Z,67.50
2018-11-02T08:23:27.186Z,84.38
2018-11-02T08:24:27.194Z,101.25
2018-11-02T08:25:27.166Z,123.75
2018-11-02T08:26:27.157Z,129.38
2018-11-02T08:27:27.157Z,168.75
2018-11-02T08:28:27.131Z,135.00
2018-11-02T08:29:27.121Z,163.12
2018-11-02T08:30:27.120Z,208.12
2018-11-02T08:31:27.099Z,258.75
2018-11-02T08:32:27.119Z,180.00
2018-11-02T08:33:27.077Z,180.00
2018-11-02T08:34:27.065Z,253.12
2018-11-02T08:35:27.060Z,275.62
2018-11-02T08:36:27.044Z,258.75
2018-11-02T08:37:27.032Z,247.50
2018-11-02T08:38:27.036Z,298.12
2018-11-02T08:39:27.012Z,405.00
2018-11-02T08:40:27.002Z,405.00
2018-11-02T08:41:27.368Z,393.75
2018-11-02T08:42:26.978Z,320.62
2018-11-02T08:43:26.988Z,298.12
2018-11-02T08:44:26.954Z,286.88
2018-11-02T08:45:26.945Z,253.12
2018-11-02T08:46:26.959Z,236.25
2018-11-02T08:47:26.924Z,202.50
2018-11-02T08:48:26.929Z,168.75
2018-11-02T08:49:26.902Z,157.50
2018-11-02T08:50:26.889Z,151.88
2018-11-02T08:51:26.880Z,157.50
2018-11-02T08:52:26.984Z,151.88
2018-11-02T08:53:26.872Z,135.00
2018-11-02T08:54:26.846Z,140.62
2018-11-02T08:55:26.836Z,135.00
2018-11-02T08:56:26.827Z,146.25
2018-11-02T08:57:26.815Z,140.62
2018-11-02T08:58:27.026Z,253.12
2018-11-02T08:59:26.880Z,326.25
2018-11-02T09:00:26.781Z,320.62
2018-11-02T09:01:26.770Z,208.12
2018-11-02T09:02:26.764Z,146.25
2018-11-02T09:03:26.749Z,185.62
2018-11-02T09:04:26.764Z,185.62
2018-11-02T09:05:26.729Z,180.00
2018-11-02T09:06:26.716Z,247.50
2018-11-02T09:07:26.704Z,354.38
2018-11-02T09:08:26.694Z,427.50
2018-11-02T09:09:26.682Z,433.12
2018-11-02T09:10:26.704Z,466.88
2018-11-02T09:11:26.660Z,534.38
2018-11-02T09:12:26.652Z,585.00
2018-11-02T09:13:26.653Z,568.12
2018-11-02T09:14:26.627Z,590.62
2018-11-02T09:15:26.631Z,483.75
2018-11-02T09:16:26.607Z,461.25
2018-11-02T09:17:26.596Z,427.50
2018-11-02T09:18:26.587Z,455.62
2018-11-02T09:19:26.642Z,495.00
2018-11-02T09:20:26.579Z,528.75
2018-11-02T09:21:26.915Z,534.38
2018-11-02T09:22:26.542Z,455.62
2018-11-02T09:23:26.531Z,393.75
2018-11-02T09:24:26.519Z,427.50
2018-11-02T09:25:26.512Z,483.75
2018-11-02T09:26:26.501Z,489.38
2018-11-02T09:27:26.521Z,495.00
2018-11-02T09:28:26.478Z,483.75
2018-11-02T09:29:26.471Z,500.62
2018-11-02T09:30:26.457Z,551.25
2018-11-02T09:31:26.445Z,585.00
2018-11-02T09:32:26.449Z,579.38
2018-11-02T09:33:26.425Z,511.88
2018-11-02T09:34:26.413Z,461.25
2018-11-02T09:35:26.402Z,427.50
2018-11-02T09:36:26.438Z,348.75
2018-11-02T09:37:26.380Z,354.38
2018-11-02T09:38:26.370Z,427.50
2018-11-02T09:39:26.359Z,438.75
2018-11-02T09:40:26.477Z,433.12
2018-11-02T09:41:26.337Z,506.25
2018-11-02T09:42:26.360Z,461.25
2018-11-02T09:43:26.315Z,483.75
2018-11-02T09:44:26.306Z,478.12
2018-11-02T09:45:26.294Z,466.88
2018-11-02T09:46:26.293Z,472.50
2018-11-02T09:47:26.272Z,450.00
2018-11-02T09:48:26.261Z,444.38
2018-11-02T09:49:26.263Z,427.50
2018-11-02T09:50:26.240Z,444.38
2018-11-02T09:51:26.247Z,483.75
2018-11-02T09:52:26.232Z,495.00
2018-11-02T09:53:26.207Z,511.88
2018-11-02T09:54:26.226Z,528.75
2018-11-02T09:55:26.186Z,551.25
2018-11-02T09:56:26.175Z,528.75
2018-11-02T09:57:26.182Z,556.88
2018-11-02T09:58:26.154Z,646.88
2018-11-02T09:59:26.143Z,635.62
2018-11-02T10:00:26.142Z,579.38
2018-11-02T10:01:26.120Z,551.25
2018-11-02T10:02:26.109Z,472.50
2018-11-02T10:03:26.112Z,489.38
2018-11-02T10:04:26.088Z,545.62
2018-11-02T10:05:26.077Z,545.62
2018-11-02T10:06:26.066Z,534.38
2018-11-02T10:07:26.055Z,528.75
2018-11-02T10:08:26.111Z,562.50
2018-11-02T10:09:26.033Z,585.00
2018-11-02T10:10:26.023Z,573.75
2018-11-02T10:11:26.027Z,540.00
2018-11-02T10:12:26.001Z,523.12
2018-11-02T10:13:26.019Z,540.00
2018-11-02T10:14:25.981Z,455.62
2018-11-02T10:15:25.968Z,382.50
2018-11-02T10:16:25.958Z,433.12
2018-11-02T10:17:25.947Z,500.62
2018-11-02T10:18:25.935Z,585.00
2018-11-02T10:19:25.939Z,781.88
2018-11-02T10:20:25.913Z,703.12
2018-11-02T10:21:25.903Z,871.88
2018-11-02T10:22:25.922Z,1085.62
2018-11-02T10:23:25.880Z,939.38
2018-11-02T10:24:25.868Z,1012.50
2018-11-02T10:25:25.860Z,843.75
2018-11-02T10:26:25.848Z,1096.88
2018-11-02T10:27:25.837Z,1125.00
2018-11-02T10:28:25.840Z,1006.88
2018-11-02T10:29:25.828Z,1108.12
2018-11-02T10:30:25.804Z,691.88
2018-11-02T10:31:25.793Z,585.00
2018-11-02T10:32:25.781Z,618.75
2018-11-02T10:33:25.772Z,641.25
2018-11-02T10:34:25.792Z,753.75
2018-11-02T10:35:25.856Z,916.88
2018-11-02T10:36:25.740Z,613.12
2018-11-02T10:37:25.727Z,579.38
2018-11-02T10:38:25.716Z,652.50
2018-11-02T10:39:25.709Z,618.75
2018-11-02T10:40:25.726Z,540.00
2018-11-02T10:41:25.683Z,630.00
2018-11-02T10:42:25.673Z,658.12
2018-11-02T10:43:25.662Z,686.25
2018-11-02T10:44:25.728Z,686.25
2018-11-02T10:45:25.660Z,646.88
2018-11-02T10:46:25.642Z,680.62
2018-11-02T10:47:25.618Z,703.12
2018-11-02T10:48:25.607Z,669.38
2018-11-02T10:49:25.700Z,585.00
2018-11-02T10:50:25.584Z,528.75
2018-11-02T10:51:25.583Z,528.75
2018-11-02T10:52:25.562Z,562.50
2018-11-02T10:53:25.552Z,556.88
2018-11-02T10:54:25.553Z,585.00
2018-11-02T10:55:25.544Z,613.12
2018-11-02T10:56:25.567Z,646.88
2018-11-02T10:57:25.509Z,708.75
2018-11-02T10:58:25.497Z,562.50
2018-11-02T10:59:25.487Z,489.38
2018-11-02T11:00:25.484Z,511.88
2018-11-02T11:01:25.617Z,590.62
2018-11-02T11:02:25.484Z,748.12
2018-11-02T11:03:25.443Z,843.75
2018-11-02T11:04:25.431Z,855.00
2018-11-02T11:05:25.482Z,810.00
2018-11-02T11:06:25.411Z,759.38
2018-11-02T11:07:25.399Z,697.50
2018-11-02T11:08:25.400Z,641.25
2018-11-02T11:09:25.376Z,579.38
2018-11-02T11:10:25.393Z,528.75
2018-11-02T11:11:25.367Z,489.38
2018-11-02T11:12:25.467Z,433.12
2018-11-02T11:13:25.754Z,388.12
2018-11-02T11:14:25.323Z,354.38
2018-11-02T11:15:25.312Z,315.00
2018-11-02T11:16:25.337Z,292.50
2018-11-02T11:17:25.292Z,275.62
2018-11-02T11:18:25.293Z,264.38
2018-11-02T11:19:25.268Z,241.88
2018-11-02T11:20:25.261Z,225.00
2018-11-02T11:21:25.382Z,225.00
2018-11-02T11:22:25.235Z,241.88
2018-11-02T11:23:25.225Z,275.62
2018-11-02T11:24:25.216Z,292.50
2018-11-02T11:25:25.209Z,326.25
2018-11-02T11:26:25.205Z,354.38
2018-11-02T11:27:25.183Z,405.00
2018-11-02T11:28:25.183Z,455.62
2018-11-02T11:29:25.252Z,478.12
2018-11-02T11:30:25.150Z,489.38
2018-11-02T11:31:25.139Z,511.88
2018-11-02T11:32:25.141Z,528.75
2018-11-02T11:33:25.131Z,556.88
2018-11-02T11:34:25.106Z,646.88
2018-11-02T11:35:25.096Z,680.62
2018-11-02T11:36:25.086Z,748.12
2018-11-02T11:37:25.092Z,804.38
2018-11-02T11:38:25.070Z,967.50
2018-11-02T11:39:25.058Z,894.38
2018-11-02T11:40:25.042Z,838.12
2018-11-02T11:41:25.029Z,781.88
2018-11-02T11:42:25.033Z,680.62
2018-11-02T11:43:25.021Z,618.75
2018-11-02T11:44:24.996Z,579.38
2018-11-02T11:45:25.001Z,551.25
2018-11-02T11:46:24.975Z,540.00
2018-11-02T11:47:24.965Z,506.25
2018-11-02T11:48:24.960Z,489.38
2018-11-02T11:49:24.961Z,416.25
2018-11-02T11:50:24.933Z,320.62
2018-11-02T11:51:24.936Z,241.88
2018-11-02T11:52:24.910Z,191.25
2018-11-02T11:53:24.900Z,135.00
2018-11-02T11:54:24.901Z,112.50
2018-11-02T11:55:24.877Z,129.38
2018-11-02T11:56:24.880Z,129.38
2018-11-02T11:57:24.854Z,129.38
2018-11-02T11:58:24.845Z,123.75
2018-11-02T11:59:24.837Z,135.00
2018-11-02T12:00:24.836Z,168.75
2018-11-02T12:01:24.812Z,208.12
2018-11-02T12:02:24.912Z,241.88
2018-11-02T12:03:24.791Z,275.62
2018-11-02T12:04:24.826Z,298.12
2018-11-02T12:05:24.784Z,303.75
2018-11-02T12:06:24.758Z,303.75
2018-11-02T12:07:24.788Z,315.00
2018-11-02T12:08:24.740Z,326.25
2018-11-02T12:09:24.726Z,320.62
2018-11-02T12:10:24.819Z,326.25
2018-11-02T12:11:24.703Z,354.38
2018-11-02T12:12:24.693Z,365.62
2018-11-02T12:13:24.683Z,399.38
2018-11-02T12:14:24.675Z,371.25
2018-11-02T12:15:24.677Z,348.75
2018-11-02T12:16:24.649Z,320.62
2018-11-02T12:17:24.639Z,315.00
2018-11-02T12:18:24.655Z,326.25
2018-11-02T12:19:24.619Z,315.00
2018-11-02T12:20:24.608Z,309.38
2018-11-02T12:21:24.632Z,303.75
2018-11-02T12:22:24.588Z,286.88
2018-11-02T12:23:24.629Z,298.12
2018-11-02T12:24:24.574Z,337.50
2018-11-02T12:25:24.564Z,393.75
2018-11-02T12:26:24.542Z,427.50
2018-11-02T12:27:24.531Z,444.38
2018-11-02T12:28:24.653Z,461.25
2018-11-02T12:29:24.524Z,495.00
2018-11-02T12:30:24.517Z,523.12
2018-11-02T12:31:24.488Z,551.25
2018-11-02T12:32:24.479Z,545.62
2018-11-02T12:33:24.465Z,506.25
2018-11-02T12:34:24.477Z,483.75
2018-11-02T12:35:24.459Z,483.75
2018-11-02T12:36:24.434Z,478.12
2018-11-02T12:37:24.421Z,483.75
2018-11-02T12:38:24.424Z,466.88
2018-11-02T12:39:24.401Z,478.12
2018-11-02T12:40:24.465Z,528.75
2018-11-02T12:41:24.380Z,562.50
2018-11-02T12:42:24.379Z,585.00
2018-11-02T12:43:24.388Z,624.38
2018-11-02T12:44:24.357Z,680.62
2018-11-02T12:45:24.350Z,703.12
2018-11-02T12:46:24.328Z,714.38
2018-11-02T12:47:24.314Z,714.38
2018-11-02T12:48:24.389Z,720.00
2018-11-02T12:49:24.761Z,708.75
2018-11-02T12:50:24.449Z,691.88
2018-11-02T12:51:24.270Z,680.62
2018-11-02T12:52:24.260Z,691.88
2018-11-02T12:53:24.249Z,798.75
2018-11-02T12:54:24.262Z,748.12
2018-11-02T12:55:24.227Z,798.75
2018-11-02T12:56:24.216Z,731.25
2018-11-02T12:57:24.233Z,641.25
2018-11-02T12:58:24.197Z,601.88
2018-11-02T12:59:24.185Z,590.62